createdAt,value
2023-05-05T00:01:07.962Z,15.49
2023-05-05T00:03:35.883Z,15.48
2023-05-05T00:06:03.066Z,15.46
2023-05-05T00:08:30.095Z,15.43
2023-05-05T00:10:57.079Z,15.41
2023-05-05T00:13:24.458Z,15.41
2023-05-05T00:15:52.066Z,15.40
2023-05-05T00:18:19.015Z,15.38
2023-05-05T00:20:51.760Z,15.35
2023-05-05T00:23:18.873Z,15.30
2023-05-05T00:25:45.653Z,15.29
2023-05-05T00:28:15.728Z,15.26
2023-05-05T00:30:47.579Z,15.23
2023-05-05T00:33:15.734Z,15.19
2023-05-05T00:35:47.779Z,15.13
2023-05-05T00:38:14.801Z,15.07
2023-05-05T00:40:41.848Z,15.05
2023-05-05T00:43:08.714Z,15.02
2023-05-05T00:45:37.049Z,14.99
2023-05-05T00:48:04.129Z,14.95
2023-05-05T00:50:31.865Z,14.91
2023-05-05T00:53:04.002Z,14.86
2023-05-05T00:55:32.318Z,14.81
2023-05-05T00:57:59.876Z,14.75
2023-05-05T01:00:27.556Z,14.74
2023-05-05T01:03:00.959Z,14.73
2023-05-05T01:05:32.214Z,14.69
2023-05-05T01:08:18.963Z,14.67
2023-05-05T01:11:11.941Z,14.65
2023-05-05T01:14:09.443Z,14.62
2023-05-05T01:16:36.819Z,14.58
2023-05-05T01:19:32.314Z,14.57
2023-05-05T01:22:00.290Z,14.53
2023-05-05T01:24:54.025Z,14.52
2023-05-05T01:27:34.665Z,14.49
2023-05-05T01:30:28.589Z,14.48
2023-05-05T01:32:58.919Z,14.47
2023-05-05T01:35:31.334Z,14.46
2023-05-05T01:38:02.586Z,14.44
2023-05-05T01:40:33.282Z,14.43
2023-05-05T01:43:00.173Z,14.41
2023-05-05T01:45:29.125Z,14.40
2023-05-05T01:47:56.005Z,14.41
2023-05-05T01:50:22.868Z,14.40
2023-05-05T01:52:50.178Z,14.40
2023-05-05T01:55:22.338Z,14.38
2023-05-05T01:57:49.480Z,14.38
2023-05-05T02:00:17.419Z,14.40
2023-05-05T02:02:46.060Z,14.43
2023-05-05T02:05:13.213Z,14.45
2023-05-05T02:07:40.429Z,14.48
2023-05-05T02:10:08.012Z,14.51
2023-05-05T02:12:36.089Z,14.53
2023-05-05T02:15:03.078Z,14.54
2023-05-05T02:17:30.155Z,14.58
2023-05-05T02:19:58.438Z,14.60
2023-05-05T02:22:25.809Z,14.63
2023-05-05T02:24:53.049Z,14.63
2023-05-05T02:27:20.335Z,14.62
2023-05-05T02:29:52.323Z,14.61
2023-05-05T02:32:35.987Z,14.63
2023-05-05T02:35:15.017Z,14.66
2023-05-05T02:37:48.252Z,14.65
2023-05-05T02:40:15.287Z,14.65
2023-05-05T02:42:43.010Z,14.67
2023-05-05T02:45:12.877Z,14.69
2023-05-05T02:47:41.689Z,14.70
2023-05-05T02:50:09.215Z,14.73
2023-05-05T02:52:38.244Z,14.75
2023-05-05T02:55:05.546Z,14.76
2023-05-05T02:57:41.155Z,14.76
2023-05-05T03:00:21.142Z,14.74
2023-05-05T03:03:18.412Z,14.75
2023-05-05T03:06:19.953Z,14.75
2023-05-05T03:08:55.098Z,14.71
2023-05-05T03:11:28.575Z,14.70
2023-05-05T03:14:03.985Z,14.69
2023-05-05T03:16:31.623Z,14.70
2023-05-05T03:18:59.086Z,14.72
2023-05-05T03:21:26.242Z,14.74
2023-05-05T03:23:53.019Z,14.76
2023-05-05T03:26:20.663Z,14.80
2023-05-05T03:28:47.706Z,14.83
2023-05-05T03:31:21.673Z,14.89
2023-05-05T03:33:51.860Z,14.93
2023-05-05T03:36:20.116Z,14.99
2023-05-05T03:38:47.535Z,15.03
2023-05-05T03:41:14.369Z,15.05
2023-05-05T03:43:41.254Z,15.10
2023-05-05T03:46:09.706Z,15.14
2023-05-05T03:48:36.849Z,15.18
2023-05-05T03:51:04.598Z,15.23
2023-05-05T03:53:32.849Z,15.29
2023-05-05T03:56:05.322Z,15.32
2023-05-05T03:58:32.777Z,15.35
2023-05-05T04:00:59.629Z,15.39
2023-05-05T04:03:26.642Z,15.45
2023-05-05T04:05:53.579Z,15.51
2023-05-05T04:08:21.240Z,15.58
2023-05-05T04:10:48.192Z,15.64
2023-05-05T04:13:15.862Z,15.69
2023-05-05T04:23:09.195Z,15.90
2023-05-05T04:25:36.836Z,15.96
2023-05-05T04:28:04.765Z,16.03
2023-05-05T04:30:32.776Z,16.10
2023-05-05T04:32:59.579Z,16.19
2023-05-05T04:35:26.438Z,16.29
2023-05-05T04:37:54.271Z,16.39
2023-05-05T04:40:21.221Z,16.50
2023-05-05T04:42:54.257Z,16.63
2023-05-05T04:45:22.725Z,16.75
2023-05-05T04:47:49.846Z,16.82
2023-05-05T04:50:18.200Z,16.88
2023-05-05T04:52:45.503Z,16.93
2023-05-05T04:55:12.369Z,16.98
2023-05-05T04:57:39.354Z,17.05
2023-05-05T05:00:07.982Z,17.14
2023-05-05T05:02:37.060Z,17.20
2023-05-05T05:05:05.108Z,17.27
2023-05-05T05:07:32.375Z,17.34
2023-05-05T05:09:59.406Z,17.40
2023-05-05T05:12:26.366Z,17.47
2023-05-05T05:14:53.572Z,17.57
2023-05-05T05:17:20.857Z,17.67
2023-05-05T05:19:47.765Z,17.74
2023-05-05T05:22:14.732Z,17.84
2023-05-05T05:24:42.667Z,17.90
2023-05-05T05:27:10.095Z,17.98
2023-05-05T05:29:38.514Z,17.98
2023-05-05T05:32:06.020Z,18.01
2023-05-05T05:34:34.054Z,18.10
2023-05-05T05:37:06.487Z,18.18
2023-05-05T05:39:35.945Z,18.28
2023-05-05T05:42:03.385Z,18.42
2023-05-05T05:44:32.282Z,18.56
2023-05-05T05:46:59.198Z,18.64
2023-05-05T05:49:26.474Z,18.76
2023-05-05T05:51:53.378Z,18.89
2023-05-05T05:54:20.298Z,19.01
2023-05-05T05:56:47.363Z,19.17
2023-05-05T05:59:15.473Z,19.26
2023-05-05T06:01:42.419Z,19.36
2023-05-05T06:04:09.371Z,19.48
2023-05-05T06:06:37.959Z,19.61
2023-05-05T06:09:04.851Z,19.62
2023-05-05T06:11:34.432Z,19.65
2023-05-05T06:14:01.777Z,19.74
2023-05-05T06:16:29.281Z,19.73
2023-05-05T06:18:57.001Z,19.69
2023-05-05T06:21:23.928Z,19.74
2023-05-05T06:23:51.853Z,19.87
2023-05-05T06:26:18.699Z,19.98
2023-05-05T06:28:45.570Z,20.10
2023-05-05T06:31:13.644Z,20.16
2023-05-05T06:33:40.655Z,20.20
2023-05-05T06:36:07.930Z,20.29
2023-05-05T06:38:36.193Z,20.42
2023-05-05T06:41:03.150Z,20.55
2023-05-05T06:43:30.676Z,20.53
2023-05-05T06:46:00.301Z,20.41
2023-05-05T06:48:27.517Z,20.31
2023-05-05T06:50:56.103Z,20.37
2023-05-05T06:53:23.021Z,20.46
2023-05-05T06:55:50.074Z,20.63
2023-05-05T06:58:17.129Z,20.72
2023-05-05T07:00:43.954Z,20.77
2023-05-05T07:03:11.173Z,20.90
2023-05-05T07:05:38.302Z,20.94
2023-05-05T07:08:06.265Z,20.88
2023-05-05T07:10:33.765Z,20.87
2023-05-05T07:13:00.878Z,20.93
2023-05-05T07:15:29.614Z,20.95
2023-05-05T07:17:56.998Z,20.93
2023-05-05T07:20:24.350Z,20.77
2023-05-05T07:22:51.644Z,20.80
2023-05-05T07:25:18.568Z,20.97
2023-05-05T07:27:45.747Z,21.12
2023-05-05T07:30:15.582Z,21.11
2023-05-05T07:32:45.259Z,20.91
2023-05-05T07:35:12.190Z,20.69
2023-05-05T07:37:39.031Z,20.67
2023-05-05T07:40:06.854Z,20.77
2023-05-05T07:42:35.376Z,20.92
2023-05-05T07:45:02.688Z,21.02
2023-05-05T07:47:29.787Z,21.06
2023-05-05T07:49:57.117Z,21.05
2023-05-05T07:52:37.418Z,21.13
2023-05-05T07:55:11.395Z,21.22
2023-05-05T07:57:38.810Z,21.35
2023-05-05T08:00:06.632Z,21.41
2023-05-05T08:02:54.204Z,21.45
2023-05-05T08:05:21.353Z,21.62
2023-05-05T08:07:48.393Z,21.70
2023-05-05T08:10:15.954Z,21.69
2023-05-05T08:12:43.028Z,21.77
2023-05-05T08:15:10.321Z,21.70
2023-05-05T08:17:50.925Z,21.66
2023-05-05T08:20:18.822Z,21.77
2023-05-05T08:22:45.908Z,21.99
2023-05-05T08:25:13.293Z,22.11
2023-05-05T08:27:41.135Z,22.31
2023-05-05T08:30:08.733Z,22.51
2023-05-05T08:32:37.943Z,22.48
2023-05-05T08:35:05.617Z,22.49
2023-05-05T08:37:32.788Z,22.60
2023-05-05T08:39:59.666Z,22.77
2023-05-05T08:42:37.122Z,22.91
2023-05-05T08:45:07.245Z,23.15
2023-05-05T08:47:35.520Z,23.19
2023-05-05T08:50:05.108Z,23.32
2023-05-05T08:52:43.348Z,23.68
2023-05-05T08:55:17.536Z,24.17
2023-05-05T08:57:56.983Z,24.65
2023-05-05T09:00:26.593Z,25.04
2023-05-05T09:02:58.202Z,25.56
2023-05-05T09:05:25.706Z,26.02
2023-05-05T09:07:52.623Z,26.22
2023-05-05T09:10:19.565Z,26.58
2023-05-05T09:12:49.011Z,27.08
2023-05-05T09:15:15.920Z,27.47
2023-05-05T09:17:43.742Z,27.75
2023-05-05T09:20:11.826Z,28.24
2023-05-05T09:22:39.423Z,28.76
2023-05-05T09:25:11.495Z,29.32
2023-05-05T09:27:42.760Z,29.67
2023-05-05T09:30:10.646Z,29.96
2023-05-05T09:32:49.631Z,30.39
2023-05-05T09:35:17.005Z,30.82
2023-05-05T09:37:43.978Z,31.14
2023-05-05T09:40:12.750Z,31.44
2023-05-05T09:42:39.929Z,31.81
2023-05-05T09:45:19.484Z,32.18
2023-05-05T09:47:46.517Z,32.35
2023-05-05T09:50:17.946Z,32.67
2023-05-05T09:52:55.497Z,33.03
2023-05-05T09:55:23.323Z,33.30
2023-05-05T09:57:50.233Z,33.42
2023-05-05T10:00:17.370Z,33.69
2023-05-05T10:02:45.160Z,33.88
2023-05-05T10:05:13.035Z,34.02
2023-05-05T10:07:42.351Z,34.08
2023-05-05T10:10:13.777Z,34.04
2023-05-05T10:12:41.544Z,34.15
2023-05-05T10:15:09.873Z,34.44
2023-05-05T10:17:50.964Z,34.43
2023-05-05T10:20:29.815Z,34.54
2023-05-05T10:22:56.676Z,34.66
2023-05-05T10:25:30.583Z,34.22
2023-05-05T10:27:59.212Z,33.30
2023-05-05T10:30:29.500Z,33.39
2023-05-05T10:33:22.299Z,33.27
2023-05-05T10:35:52.821Z,32.85
2023-05-05T10:38:20.222Z,32.21
2023-05-05T10:40:47.637Z,31.91
2023-05-05T10:43:14.812Z,32.04
2023-05-05T10:45:41.775Z,32.36
2023-05-05T10:48:12.425Z,32.71
2023-05-05T10:50:44.297Z,33.00
2023-05-05T10:53:27.592Z,33.09
2023-05-05T10:56:10.303Z,33.20
2023-05-05T10:58:51.087Z,33.39
2023-05-05T11:01:32.715Z,33.93
2023-05-05T11:04:19.481Z,34.18
2023-05-05T11:07:09.260Z,34.24
2023-05-05T11:09:57.362Z,34.22
2023-05-05T11:12:24.309Z,34.09
2023-05-05T11:15:29.060Z,34.13
2023-05-05T11:17:59.233Z,34.64
2023-05-05T11:20:35.606Z,35.23
2023-05-05T11:23:02.499Z,34.95
2023-05-05T11:25:39.977Z,34.20
2023-05-05T11:28:07.449Z,33.88
2023-05-05T11:30:35.492Z,33.49
2023-05-05T11:33:30.894Z,33.30
2023-05-05T11:35:58.306Z,33.34
2023-05-05T11:38:47.841Z,33.56
2023-05-05T11:41:29.900Z,33.71
2023-05-05T11:44:09.088Z,33.75
2023-05-05T11:46:36.180Z,33.32
2023-05-05T11:49:03.057Z,32.46
2023-05-05T11:51:30.482Z,31.88
2023-05-05T11:53:59.055Z,31.40
2023-05-05T11:56:26.074Z,31.28
2023-05-05T11:59:09.371Z,31.32
2023-05-05T12:01:40.419Z,31.87
2023-05-05T12:04:11.003Z,32.07
2023-05-05T12:06:38.716Z,32.31
2023-05-05T12:09:06.320Z,32.75
2023-05-05T12:11:33.180Z,33.24
2023-05-05T12:14:09.880Z,33.85
2023-05-05T12:16:37.345Z,34.12
2023-05-05T12:19:07.831Z,34.00
2023-05-05T12:21:35.156Z,33.93
2023-05-05T12:24:02.260Z,33.78
2023-05-05T12:26:32.235Z,33.21
2023-05-05T12:28:59.414Z,32.76
2023-05-05T12:31:39.151Z,32.18
2023-05-05T12:34:07.194Z,31.20
2023-05-05T12:36:35.461Z,30.49
2023-05-05T12:39:04.443Z,30.21
2023-05-05T12:41:31.797Z,30.17
2023-05-05T12:43:59.257Z,29.87
2023-05-05T12:46:26.196Z,29.38
2023-05-05T12:49:04.971Z,29.16
2023-05-05T12:51:33.473Z,28.97
2023-05-05T12:54:04.533Z,28.79
2023-05-05T12:56:42.002Z,28.54
2023-05-05T12:59:10.313Z,28.39
2023-05-05T13:01:47.966Z,28.32
2023-05-05T13:04:14.967Z,28.29
2023-05-05T13:06:43.531Z,28.45
2023-05-05T13:09:26.137Z,28.83
2023-05-05T13:11:53.891Z,28.96
2023-05-05T13:14:21.116Z,28.96
2023-05-05T13:16:48.133Z,29.14
2023-05-05T13:19:15.012Z,29.31
2023-05-05T13:21:41.845Z,29.22
2023-05-05T13:24:25.318Z,28.97
2023-05-05T13:26:56.002Z,29.23
2023-05-05T13:29:25.129Z,29.40
2023-05-05T13:31:52.938Z,29.33
2023-05-05T13:34:19.654Z,29.31
2023-05-05T13:36:51.522Z,29.58
2023-05-05T13:39:18.298Z,29.56
2023-05-05T13:41:45.124Z,29.28
2023-05-05T13:44:13.254Z,28.94
2023-05-05T13:46:46.195Z,28.72
2023-05-05T13:49:13.409Z,28.42
2023-05-05T13:51:40.480Z,28.17
2023-05-05T13:54:07.306Z,27.95
2023-05-05T13:56:34.457Z,27.70
2023-05-05T13:59:01.756Z,27.44
2023-05-05T14:01:29.147Z,27.27
2023-05-05T14:03:57.442Z,27.25
2023-05-05T14:06:25.283Z,27.26
2023-05-05T14:08:52.353Z,27.26
2023-05-05T14:11:20.189Z,27.16
2023-05-05T14:13:47.486Z,27.09
2023-05-05T14:16:14.251Z,26.85
2023-05-05T14:18:41.264Z,26.55
2023-05-05T14:21:08.200Z,26.30
2023-05-05T14:23:35.331Z,26.13
2023-05-05T14:26:02.196Z,25.97
2023-05-05T14:28:29.171Z,25.86
2023-05-05T14:30:56.153Z,25.79
2023-05-05T14:33:23.116Z,25.74
2023-05-05T14:35:49.929Z,25.62
2023-05-05T14:38:16.813Z,25.48
2023-05-05T14:40:43.766Z,25.36
2023-05-05T14:43:10.597Z,25.23
2023-05-05T14:45:37.529Z,25.15
2023-05-05T14:48:04.619Z,25.13
2023-05-05T14:50:31.557Z,25.15
2023-05-05T14:52:58.358Z,25.15
2023-05-05T14:55:25.560Z,25.18
2023-05-05T14:57:52.453Z,25.12
2023-05-05T15:00:19.290Z,25.07
2023-05-05T15:02:47.547Z,24.97
2023-05-05T15:05:14.448Z,24.92
2023-05-05T15:07:41.357Z,24.97
2023-05-05T15:10:08.674Z,25.07
2023-05-05T15:12:35.752Z,25.21
2023-05-05T15:15:02.827Z,25.34
2023-05-05T15:17:31.185Z,25.46
2023-05-05T15:19:58.349Z,25.53
2023-05-05T15:22:25.458Z,25.60
2023-05-05T15:24:52.655Z,25.67
2023-05-05T15:27:19.526Z,25.70
2023-05-05T15:29:46.377Z,25.65
2023-05-05T15:32:13.243Z,25.56
2023-05-05T15:34:40.292Z,25.45
2023-05-05T15:37:07.019Z,25.35
2023-05-05T15:39:33.981Z,25.26
2023-05-05T15:42:04.291Z,25.15
2023-05-05T15:44:31.316Z,25.16
2023-05-05T15:46:58.246Z,25.14
2023-05-05T15:49:25.118Z,25.04
2023-05-05T15:51:51.938Z,24.97
2023-05-05T15:54:23.829Z,24.89
2023-05-05T15:56:50.708Z,24.74
2023-05-05T15:59:18.607Z,24.60
2023-05-05T16:01:46.755Z,24.44
2023-05-05T16:04:14.161Z,24.31
2023-05-05T16:06:40.997Z,24.21
2023-05-05T16:09:08.175Z,24.07
2023-05-05T16:11:36.596Z,23.90
2023-05-05T16:14:03.508Z,23.77
2023-05-05T16:16:30.714Z,23.63
2023-05-05T16:18:57.628Z,23.48
2023-05-05T16:21:25.011Z,23.33
2023-05-05T16:23:51.946Z,23.19
2023-05-05T16:26:18.864Z,23.09
2023-05-05T16:28:45.645Z,22.96
2023-05-05T16:31:13.024Z,22.83
2023-05-05T16:33:48.128Z,22.71
2023-05-05T16:36:15.175Z,22.57
2023-05-05T16:38:43.114Z,22.44
2023-05-05T16:41:11.430Z,22.31
2023-05-05T16:43:38.526Z,22.20
2023-05-05T16:46:07.269Z,22.07
2023-05-05T16:48:35.243Z,21.96
2023-05-05T16:51:02.575Z,21.85
2023-05-05T16:53:29.593Z,21.77
2023-05-05T16:55:56.876Z,21.68
2023-05-05T16:58:24.277Z,21.59
2023-05-05T17:00:51.289Z,21.51
2023-05-05T17:03:19.721Z,21.42
2023-05-05T17:05:49.650Z,21.34
2023-05-05T17:08:17.039Z,21.25
2023-05-05T17:10:44.635Z,21.14
2023-05-05T17:13:12.547Z,21.04
2023-05-05T17:15:40.236Z,20.96
2023-05-05T17:18:07.934Z,20.86
2023-05-05T17:20:36.331Z,20.74
2023-05-05T17:23:04.449Z,20.62
2023-05-05T17:25:32.388Z,20.52
2023-05-05T17:28:04.520Z,20.43
2023-05-05T17:30:32.031Z,20.36
2023-05-05T17:33:00.217Z,20.29
2023-05-05T17:35:27.633Z,20.20
2023-05-05T17:37:54.725Z,20.12
2023-05-05T17:40:24.210Z,20.02
2023-05-05T17:42:55.034Z,19.86
2023-05-05T17:45:26.216Z,19.69
2023-05-05T17:47:57.319Z,19.54
2023-05-05T17:50:27.190Z,19.44
2023-05-05T17:52:57.232Z,19.35
2023-05-05T17:55:30.630Z,19.28
2023-05-05T17:58:00.250Z,19.21
2023-05-05T18:00:30.239Z,19.15
2023-05-05T18:03:01.363Z,19.09
2023-05-05T18:05:37.240Z,19.02
2023-05-05T18:08:07.256Z,18.96
2023-05-05T18:10:37.226Z,18.89
2023-05-05T18:13:08.329Z,18.84
2023-05-05T18:15:40.253Z,18.81
2023-05-05T18:18:11.322Z,18.77
2023-05-05T18:20:43.218Z,18.72
2023-05-05T18:23:13.753Z,18.66
2023-05-05T18:25:49.521Z,18.60
2023-05-05T18:28:18.048Z,18.54
2023-05-05T18:30:49.193Z,18.48
2023-05-05T18:33:26.056Z,18.42
2023-05-05T18:35:57.231Z,18.36
2023-05-05T18:38:28.308Z,18.31
2023-05-05T18:49:12.839Z,18.15
2023-05-05T18:51:39.758Z,18.08
2023-05-05T18:54:11.826Z,18.00
2023-05-05T18:56:43.803Z,17.93
2023-05-05T18:59:11.168Z,17.87
2023-05-05T19:01:38.222Z,17.78
2023-05-05T19:04:08.416Z,17.69
2023-05-05T19:06:39.901Z,17.59
2023-05-05T19:09:06.749Z,17.48
2023-05-05T19:11:33.686Z,17.43
2023-05-05T19:14:02.095Z,17.37
2023-05-05T19:16:30.141Z,17.31
2023-05-05T19:18:59.417Z,17.25
2023-05-05T19:21:26.978Z,17.17
2023-05-05T19:23:59.010Z,17.11
2023-05-05T19:26:26.423Z,17.04
2023-05-05T19:28:58.911Z,16.98
2023-05-05T19:31:30.187Z,16.92
2023-05-05T19:34:04.263Z,16.87
2023-05-05T19:36:31.565Z,16.82
2023-05-05T19:39:01.124Z,16.76
2023-05-05T19:41:29.157Z,16.70
2023-05-05T19:43:56.615Z,16.61
2023-05-05T19:46:25.941Z,16.56
2023-05-05T19:48:52.762Z,16.51
2023-05-05T19:51:19.622Z,16.44
2023-05-05T19:53:46.467Z,16.40
2023-05-05T19:56:13.383Z,16.35
2023-05-05T19:59:01.074Z,16.28
2023-05-05T20:01:29.298Z,16.19
2023-05-05T20:03:56.646Z,16.10
2023-05-05T20:06:23.691Z,16.05
2023-05-05T20:08:50.605Z,15.99
2023-05-05T20:11:17.704Z,15.94
2023-05-05T20:13:45.922Z,15.90
2023-05-05T20:16:13.192Z,15.85
2023-05-05T20:18:40.272Z,15.79
2023-05-05T20:21:07.055Z,15.76
2023-05-05T20:23:36.166Z,15.71
2023-05-05T20:26:02.935Z,15.69
2023-05-05T20:28:33.448Z,15.64
2023-05-05T20:31:00.791Z,15.61
2023-05-05T20:33:28.138Z,15.56
2023-05-05T20:35:55.046Z,15.53
2023-05-05T20:38:22.007Z,15.47
2023-05-05T20:40:49.552Z,15.43
2023-05-05T20:43:17.145Z,15.37
2023-05-05T20:45:44.082Z,15.32
2023-05-05T20:48:10.916Z,15.27
2023-05-05T20:50:38.710Z,15.22
2023-05-05T20:53:14.157Z,15.17
2023-05-05T20:55:41.129Z,15.12
2023-05-05T20:58:07.968Z,15.08
2023-05-05T21:00:35.821Z,15.06
2023-05-05T21:03:04.380Z,15.03
2023-05-05T21:05:32.447Z,14.99
2023-05-05T21:08:01.187Z,14.94
2023-05-05T21:10:28.675Z,14.90
2023-05-05T21:12:55.991Z,14.85
2023-05-05T21:15:23.349Z,14.81
2023-05-05T21:17:50.628Z,14.76
2023-05-05T21:20:29.211Z,14.71
2023-05-05T21:22:56.074Z,14.67
2023-05-05T21:25:23.288Z,14.62
2023-05-05T21:27:50.165Z,14.56
2023-05-05T21:30:17.486Z,14.48
2023-05-05T21:32:44.867Z,14.42
2023-05-05T21:35:12.078Z,14.36
2023-05-05T21:37:38.965Z,14.31
2023-05-05T21:40:13.007Z,14.27
2023-05-05T21:42:40.722Z,14.18
2023-05-05T21:45:08.478Z,14.10
2023-05-05T21:47:35.764Z,14.02
2023-05-05T21:50:09.128Z,13.94
2023-05-05T21:52:36.932Z,13.88
2023-05-05T21:55:04.132Z,13.82
2023-05-05T21:57:31.344Z,13.77
2023-05-05T21:59:58.166Z,13.74
2023-05-05T22:02:25.062Z,13.72
2023-05-05T22:04:51.975Z,13.68
2023-05-05T22:07:18.977Z,13.62
2023-05-05T22:09:45.980Z,13.58
2023-05-05T22:12:13.115Z,13.55
2023-05-05T22:14:40.223Z,13.51
2023-05-05T22:17:07.109Z,13.48
2023-05-05T22:19:39.028Z,13.44
2023-05-05T22:22:06.480Z,13.36
2023-05-05T22:24:33.644Z,13.31
2023-05-05T22:27:01.486Z,13.28
2023-05-05T22:29:28.704Z,13.24
2023-05-05T22:31:55.615Z,13.19
2023-05-05T22:34:23.368Z,13.14
2023-05-05T22:36:50.129Z,13.10
2023-05-05T22:39:17.983Z,13.07
2023-05-05T22:41:44.735Z,13.02
2023-05-05T22:44:11.876Z,12.98
2023-05-05T22:46:38.664Z,12.94
2023-05-05T22:49:06.153Z,12.88
2023-05-05T22:51:34.207Z,12.86
2023-05-05T22:54:01.352Z,12.82
2023-05-05T22:56:28.329Z,12.79
2023-05-05T22:58:55.256Z,12.73
2023-05-05T23:01:22.111Z,12.70
2023-05-05T23:03:49.168Z,12.64
2023-05-05T23:06:16.255Z,12.63
2023-05-05T23:08:43.095Z,12.61
2023-05-05T23:11:11.125Z,12.59
2023-05-05T23:13:38.042Z,12.59
2023-05-05T23:16:05.357Z,12.56
2023-05-05T23:18:33.037Z,12.52
2023-05-05T23:20:59.968Z,12.50
2023-05-05T23:23:26.865Z,12.48
2023-05-05T23:25:53.672Z,12.47
2023-05-05T23:28:25.935Z,12.43
2023-05-05T23:30:53.095Z,12.43
2023-05-05T23:33:19.929Z,12.43
2023-05-05T23:35:47.058Z,12.39
2023-05-05T23:38:14.513Z,12.35
2023-05-05T23:40:41.362Z,12.34
2023-05-05T23:43:08.283Z,12.30
2023-05-05T23:45:35.169Z,12.27
2023-05-05T23:48:02.319Z,12.23
2023-05-05T23:50:29.912Z,12.19
2023-05-05T23:52:56.752Z,12.16
2023-05-05T23:55:23.785Z,12.10
2023-05-05T23:57:52.835Z,12.08
